sensor_id;sensor_type;location;lat;lon;timestamp;P1;durP1;ratioP1;P2;durP2;ratioP2
10511;SDS011;5304;48.604;2.096;2023-03-03T00:02:39;40.67;;;21.50;;
10511;SDS011;5304;48.604;2.096;2023-03-03T00:05:24;39.00;;;19.50;;
10511;SDS011;5304;48.604;2.096;2023-03-03T00:08:08;36.73;;;20.50;;
10511;SDS011;5304;48.604;2.096;2023-03-03T00:10:53;40.97;;;21.20;;
10511;SDS011;5304;48.604;2.096;2023-03-03T00:13:48;38.63;;;20.97;;
10511;SDS011;5304;48.604;2.096;2023-03-03T00:16:34;37.17;;;20.17;;
10511;SDS011;5304;48.604;2.096;2023-03-03T00:19:21;38.20;;;20.00;;
10511;SDS011;5304;48.604;2.096;2023-03-03T00:22:06;39.13;;;21.07;;
10511;SDS011;5304;48.604;2.096;2023-03-03T00:25:24;41.73;;;20.07;;
10511;SDS011;5304;48.604;2.096;2023-03-03T00:28:21;40.63;;;20.67;;
10511;SDS011;5304;48.604;2.096;2023-03-03T00:31:11;37.97;;;21.00;;
10511;SDS011;5304;48.604;2.096;2023-03-03T00:34:19;37.47;;;19.30;;
10511;SDS011;5304;48.604;2.096;2023-03-03T00:45:58;39.07;;;21.30;;
10511;SDS011;5304;48.604;2.096;2023-03-03T00:48:43;39.80;;;20.50;;
10511;SDS011;5304;48.604;2.096;2023-03-03T00:51:28;39.93;;;19.37;;
10511;SDS011;5304;48.604;2.096;2023-03-03T00:54:18;46.07;;;22.00;;
10511;SDS011;5304;48.604;2.096;2023-03-03T00:57:03;44.13;;;21.70;;
10511;SDS011;5304;48.604;2.096;2023-03-03T00:59:47;43.17;;;21.23;;
10511;SDS011;5304;48.604;2.096;2023-03-03T01:02:31;37.80;;;19.70;;
10511;SDS011;5304;48.604;2.096;2023-03-03T01:05:16;40.97;;;21.33;;
10511;SDS011;5304;48.604;2.096;2023-03-03T01:08:02;42.10;;;21.43;;
10511;SDS011;5304;48.604;2.096;2023-03-03T01:10:48;41.97;;;23.40;;
10511;SDS011;5304;48.604;2.096;2023-03-03T01:13:39;39.37;;;19.57;;
10511;SDS011;5304;48.604;2.096;2023-03-03T01:16:25;42.53;;;19.33;;
10511;SDS011;5304;48.604;2.096;2023-03-03T01:19:10;39.63;;;19.90;;
10511;SDS011;5304;48.604;2.096;2023-03-03T01:21:54;43.07;;;21.57;;
10511;SDS011;5304;48.604;2.096;2023-03-03T01:24:39;38.73;;;20.27;;
10511;SDS011;5304;48.604;2.096;2023-03-03T01:27:23;40.30;;;21.10;;
10511;SDS011;5304;48.604;2.096;2023-03-03T01:30:08;45.70;;;21.03;;
10511;SDS011;5304;48.604;2.096;2023-03-03T01:32:53;38.60;;;20.13;;
10511;SDS011;5304;48.604;2.096;2023-03-03T01:35:42;34.83;;;18.43;;
10511;SDS011;5304;48.604;2.096;2023-03-03T01:38:30;36.97;;;20.23;;
10511;SDS011;5304;48.604;2.096;2023-03-03T01:41:15;36.77;;;19.03;;
10511;SDS011;5304;48.604;2.096;2023-03-03T01:43:59;42.43;;;21.03;;
10511;SDS011;5304;48.604;2.096;2023-03-03T01:50:04;39.93;;;20.27;;
10511;SDS011;5304;48.604;2.096;2023-03-03T01:52:54;33.23;;;18.30;;
10511;SDS011;5304;48.604;2.096;2023-03-03T01:55:40;40.30;;;20.50;;
10511;SDS011;5304;48.604;2.096;2023-03-03T01:58:26;45.07;;;21.50;;
10511;SDS011;5304;48.604;2.096;2023-03-03T02:01:15;36.43;;;19.30;;
10511;SDS011;5304;48.604;2.096;2023-03-03T02:04:03;36.17;;;19.60;;
10511;SDS011;5304;48.604;2.096;2023-03-03T02:06:53;38.17;;;20.20;;
10511;SDS011;5304;48.604;2.096;2023-03-03T02:09:45;39.87;;;20.10;;
10511;SDS011;5304;48.604;2.096;2023-03-03T02:12:44;40.40;;;19.73;;
10511;SDS011;5304;48.604;2.096;2023-03-03T02:15:32;39.60;;;19.37;;
10511;SDS011;5304;48.604;2.096;2023-03-03T02:18:21;43.27;;;20.20;;
10511;SDS011;5304;48.604;2.096;2023-03-03T02:21:09;40.57;;;20.43;;
10511;SDS011;5304;48.604;2.096;2023-03-03T02:24:02;42.27;;;21.43;;
10511;SDS011;5304;48.604;2.096;2023-03-03T02:26:57;43.80;;;20.33;;
10511;SDS011;5304;48.604;2.096;2023-03-03T02:29:42;40.07;;;19.37;;
10511;SDS011;5304;48.604;2.096;2023-03-03T02:32:26;43.80;;;20.63;;
10511;SDS011;5304;48.604;2.096;2023-03-03T02:38:29;36.83;;;19.93;;
10511;SDS011;5304;48.604;2.096;2023-03-03T02:44:26;43.07;;;20.80;;
10511;SDS011;5304;48.604;2.096;2023-03-03T02:47:12;38.00;;;20.60;;
10511;SDS011;5304;48.604;2.096;2023-03-03T02:49:57;43.33;;;21.67;;
10511;SDS011;5304;48.604;2.096;2023-03-03T02:52:41;42.13;;;21.27;;
10511;SDS011;5304;48.604;2.096;2023-03-03T02:55:28;43.23;;;20.47;;
10511;SDS011;5304;48.604;2.096;2023-03-03T02:58:13;43.20;;;20.77;;
10511;SDS011;5304;48.604;2.096;2023-03-03T03:00:58;38.67;;;21.73;;
10511;SDS011;5304;48.604;2.096;2023-03-03T03:03:42;43.10;;;20.87;;
10511;SDS011;5304;48.604;2.096;2023-03-03T03:06:27;42.83;;;21.23;;
10511;SDS011;5304;48.604;2.096;2023-03-03T03:09:11;48.27;;;22.43;;
10511;SDS011;5304;48.604;2.096;2023-03-03T03:11:57;43.83;;;21.17;;
10511;SDS011;5304;48.604;2.096;2023-03-03T03:14:45;43.07;;;21.63;;
10511;SDS011;5304;48.604;2.096;2023-03-03T03:17:30;40.87;;;21.33;;
10511;SDS011;5304;48.604;2.096;2023-03-03T03:20:15;41.60;;;20.30;;
10511;SDS011;5304;48.604;2.096;2023-03-03T03:23:00;40.90;;;19.90;;
10511;SDS011;5304;48.604;2.096;2023-03-03T03:25:44;39.20;;;20.63;;
10511;SDS011;5304;48.604;2.096;2023-03-03T03:28:29;38.63;;;20.53;;
10511;SDS011;5304;48.604;2.096;2023-03-03T03:31:14;41.40;;;21.40;;
10511;SDS011;5304;48.604;2.096;2023-03-03T03:33:59;43.80;;;20.53;;
10511;SDS011;5304;48.604;2.096;2023-03-03T03:36:44;48.50;;;24.13;;
10511;SDS011;5304;48.604;2.096;2023-03-03T03:39:29;43.40;;;21.90;;
10511;SDS011;5304;48.604;2.096;2023-03-03T03:42:14;42.33;;;20.30;;
10511;SDS011;5304;48.604;2.096;2023-03-03T03:44:58;43.07;;;22.17;;
10511;SDS011;5304;48.604;2.096;2023-03-03T03:47:42;42.17;;;21.17;;
10511;SDS011;5304;48.604;2.096;2023-03-03T03:50:28;41.47;;;21.13;;
10511;SDS011;5304;48.604;2.096;2023-03-03T03:53:13;44.23;;;19.80;;
10511;SDS011;5304;48.604;2.096;2023-03-03T03:55:58;43.70;;;20.97;;
10511;SDS011;5304;48.604;2.096;2023-03-03T03:58:42;44.23;;;20.90;;
10511;SDS011;5304;48.604;2.096;2023-03-03T04:01:26;43.90;;;20.27;;
10511;SDS011;5304;48.604;2.096;2023-03-03T04:04:11;39.77;;;21.13;;
10511;SDS011;5304;48.604;2.096;2023-03-03T04:06:55;45.83;;;21.43;;
10511;SDS011;5304;48.604;2.096;2023-03-03T04:09:42;39.50;;;20.43;;
10511;SDS011;5304;48.604;2.096;2023-03-03T04:12:26;42.73;;;19.70;;
10511;SDS011;5304;48.604;2.096;2023-03-03T04:15:11;39.33;;;21.13;;
10511;SDS011;5304;48.604;2.096;2023-03-03T04:17:57;39.83;;;21.07;;
10511;SDS011;5304;48.604;2.096;2023-03-03T04:20:41;37.37;;;19.67;;
10511;SDS011;5304;48.604;2.096;2023-03-03T04:23:26;47.83;;;22.73;;
10511;SDS011;5304;48.604;2.096;2023-03-03T04:26:10;42.30;;;21.40;;
10511;SDS011;5304;48.604;2.096;2023-03-03T04:28:55;46.73;;;23.00;;
10511;SDS011;5304;48.604;2.096;2023-03-03T04:31:40;48.50;;;22.23;;
10511;SDS011;5304;48.604;2.096;2023-03-03T04:34:25;49.43;;;22.33;;
10511;SDS011;5304;48.604;2.096;2023-03-03T04:37:10;48.23;;;22.17;;
10511;SDS011;5304;48.604;2.096;2023-03-03T04:39:54;47.47;;;21.40;;
10511;SDS011;5304;48.604;2.096;2023-03-03T04:42:38;47.03;;;21.73;;
10511;SDS011;5304;48.604;2.096;2023-03-03T04:45:23;44.77;;;23.40;;
10511;SDS011;5304;48.604;2.096;2023-03-03T04:48:07;48.83;;;22.00;;
10511;SDS011;5304;48.604;2.096;2023-03-03T04:50:52;50.13;;;22.33;;
10511;SDS011;5304;48.604;2.096;2023-03-03T04:53:37;39.27;;;21.57;;
10511;SDS011;5304;48.604;2.096;2023-03-03T04:56:21;46.97;;;22.73;;
10511;SDS011;5304;48.604;2.096;2023-03-03T04:59:06;41.73;;;21.37;;
10511;SDS011;5304;48.604;2.096;2023-03-03T05:01:50;44.53;;;22.23;;
10511;SDS011;5304;48.604;2.096;2023-03-03T05:04:35;50.00;;;22.20;;
10511;SDS011;5304;48.604;2.096;2023-03-03T05:07:19;45.67;;;22.17;;
10511;SDS011;5304;48.604;2.096;2023-03-03T05:10:04;42.90;;;20.53;;
10511;SDS011;5304;48.604;2.096;2023-03-03T05:12:50;43.97;;;21.93;;
10511;SDS011;5304;48.604;2.096;2023-03-03T05:15:34;44.03;;;20.67;;
10511;SDS011;5304;48.604;2.096;2023-03-03T05:18:19;46.47;;;22.40;;
10511;SDS011;5304;48.604;2.096;2023-03-03T05:21:04;44.13;;;21.63;;
10511;SDS011;5304;48.604;2.096;2023-03-03T05:23:49;46.33;;;22.63;;
10511;SDS011;5304;48.604;2.096;2023-03-03T05:26:33;43.20;;;21.93;;
10511;SDS011;5304;48.604;2.096;2023-03-03T05:29:18;43.50;;;21.60;;
10511;SDS011;5304;48.604;2.096;2023-03-03T05:32:03;45.90;;;21.63;;
10511;SDS011;5304;48.604;2.096;2023-03-03T05:34:47;43.17;;;21.43;;
10511;SDS011;5304;48.604;2.096;2023-03-03T05:37:34;44.70;;;20.83;;
10511;SDS011;5304;48.604;2.096;2023-03-03T05:40:18;46.17;;;22.60;;
10511;SDS011;5304;48.604;2.096;2023-03-03T05:43:03;50.17;;;22.93;;
10511;SDS011;5304;48.604;2.096;2023-03-03T05:45:52;42.57;;;21.17;;
10511;SDS011;5304;48.604;2.096;2023-03-03T05:48:40;44.60;;;22.97;;
10511;SDS011;5304;48.604;2.096;2023-03-03T05:51:25;42.23;;;20.37;;
10511;SDS011;5304;48.604;2.096;2023-03-03T05:54:10;47.40;;;23.07;;
10511;SDS011;5304;48.604;2.096;2023-03-03T05:56:54;51.90;;;26.37;;
10511;SDS011;5304;48.604;2.096;2023-03-03T05:59:40;43.37;;;21.37;;
10511;SDS011;5304;48.604;2.096;2023-03-03T06:02:24;44.47;;;21.83;;
10511;SDS011;5304;48.604;2.096;2023-03-03T06:05:09;40.53;;;21.87;;
10511;SDS011;5304;48.604;2.096;2023-03-03T06:07:54;45.00;;;21.53;;
10511;SDS011;5304;48.604;2.096;2023-03-03T06:10:39;39.27;;;21.67;;
10511;SDS011;5304;48.604;2.096;2023-03-03T06:13:23;47.00;;;22.53;;
10511;SDS011;5304;48.604;2.096;2023-03-03T06:16:07;40.23;;;22.37;;
10511;SDS011;5304;48.604;2.096;2023-03-03T06:18:52;41.57;;;22.07;;
10511;SDS011;5304;48.604;2.096;2023-03-03T06:21:36;48.20;;;23.97;;
10511;SDS011;5304;48.604;2.096;2023-03-03T06:24:21;47.20;;;24.23;;
10511;SDS011;5304;48.604;2.096;2023-03-03T06:27:07;42.50;;;22.27;;
10511;SDS011;5304;48.604;2.096;2023-03-03T06:29:52;45.03;;;23.60;;
10511;SDS011;5304;48.604;2.096;2023-03-03T06:32:36;54.10;;;23.17;;
10511;SDS011;5304;48.604;2.096;2023-03-03T06:35:20;49.00;;;24.47;;
10511;SDS011;5304;48.604;2.096;2023-03-03T06:38:05;46.50;;;21.97;;
10511;SDS011;5304;48.604;2.096;2023-03-03T06:40:49;46.70;;;23.57;;
10511;SDS011;5304;48.604;2.096;2023-03-03T06:43:34;47.73;;;22.87;;
10511;SDS011;5304;48.604;2.096;2023-03-03T06:46:19;47.87;;;23.17;;
10511;SDS011;5304;48.604;2.096;2023-03-03T06:49:04;46.33;;;24.40;;
10511;SDS011;5304;48.604;2.096;2023-03-03T06:51:48;48.83;;;22.33;;
10511;SDS011;5304;48.604;2.096;2023-03-03T06:54:33;40.73;;;22.17;;
10511;SDS011;5304;48.604;2.096;2023-03-03T06:57:27;45.57;;;22.10;;
10511;SDS011;5304;48.604;2.096;2023-03-03T07:00:17;48.33;;;23.23;;
10511;SDS011;5304;48.604;2.096;2023-03-03T07:03:15;44.47;;;22.47;;
10511;SDS011;5304;48.604;2.096;2023-03-03T07:06:07;47.63;;;23.53;;
10511;SDS011;5304;48.604;2.096;2023-03-03T07:09:25;51.17;;;24.47;;
10511;SDS011;5304;48.604;2.096;2023-03-03T07:12:15;45.80;;;23.47;;
10511;SDS011;5304;48.604;2.096;2023-03-03T07:15:10;47.67;;;24.47;;
10511;SDS011;5304;48.604;2.096;2023-03-03T07:17:58;47.70;;;23.87;;
10511;SDS011;5304;48.604;2.096;2023-03-03T07:20:42;48.73;;;24.97;;
10511;SDS011;5304;48.604;2.096;2023-03-03T07:23:27;50.00;;;25.93;;
10511;SDS011;5304;48.604;2.096;2023-03-03T07:26:28;52.87;;;25.60;;
10511;SDS011;5304;48.604;2.096;2023-03-03T07:32:02;54.10;;;28.03;;
10511;SDS011;5304;48.604;2.096;2023-03-03T07:35:56;49.60;;;25.27;;
10511;SDS011;5304;48.604;2.096;2023-03-03T07:38:28;54.30;;;26.70;;
10511;SDS011;5304;48.604;2.096;2023-03-03T07:41:15;53.90;;;27.57;;
10511;SDS011;5304;48.604;2.096;2023-03-03T07:44:12;50.80;;;25.90;;
10511;SDS011;5304;48.604;2.096;2023-03-03T07:50:10;54.80;;;28.47;;
10511;SDS011;5304;48.604;2.096;2023-03-03T07:52:59;51.00;;;26.03;;
10511;SDS011;5304;48.604;2.096;2023-03-03T07:55:44;53.10;;;27.33;;
10511;SDS011;5304;48.604;2.096;2023-03-03T08:04:45;49.73;;;25.33;;
10511;SDS011;5304;48.604;2.096;2023-03-03T08:07:35;55.00;;;26.83;;
10511;SDS011;5304;48.604;2.096;2023-03-03T08:11:05;49.23;;;25.83;;
10511;SDS011;5304;48.604;2.096;2023-03-03T08:16:24;49.63;;;26.83;;
10511;SDS011;5304;48.604;2.096;2023-03-03T08:19:12;51.90;;;27.03;;
10511;SDS011;5304;48.604;2.096;2023-03-03T08:22:01;49.07;;;25.17;;
10511;SDS011;5304;48.604;2.096;2023-03-03T08:24:54;50.13;;;24.47;;
10511;SDS011;5304;48.604;2.096;2023-03-03T08:27:39;55.80;;;26.43;;
10511;SDS011;5304;48.604;2.096;2023-03-03T08:30:23;48.70;;;25.73;;
10511;SDS011;5304;48.604;2.096;2023-03-03T08:33:08;48.03;;;26.20;;
10511;SDS011;5304;48.604;2.096;2023-03-03T08:35:52;48.07;;;24.77;;
10511;SDS011;5304;48.604;2.096;2023-03-03T08:38:37;49.87;;;26.57;;
10511;SDS011;5304;48.604;2.096;2023-03-03T08:41:22;50.30;;;25.87;;
10511;SDS011;5304;48.604;2.096;2023-03-03T08:44:06;50.67;;;27.27;;
10511;SDS011;5304;48.604;2.096;2023-03-03T08:46:50;52.57;;;28.10;;
10511;SDS011;5304;48.604;2.096;2023-03-03T08:49:35;55.60;;;30.27;;
10511;SDS011;5304;48.604;2.096;2023-03-03T08:52:19;47.20;;;27.70;;
10511;SDS011;5304;48.604;2.096;2023-03-03T08:55:04;56.03;;;27.73;;
10511;SDS011;5304;48.604;2.096;2023-03-03T08:57:49;51.37;;;28.70;;
10511;SDS011;5304;48.604;2.096;2023-03-03T09:00:33;56.30;;;26.87;;
10511;SDS011;5304;48.604;2.096;2023-03-03T09:03:18;59.70;;;29.90;;
10511;SDS011;5304;48.604;2.096;2023-03-03T09:06:02;54.83;;;29.70;;
10511;SDS011;5304;48.604;2.096;2023-03-03T09:08:47;53.87;;;27.60;;
10511;SDS011;5304;48.604;2.096;2023-03-03T09:11:32;49.50;;;27.23;;
10511;SDS011;5304;48.604;2.096;2023-03-03T09:14:17;51.03;;;27.70;;
10511;SDS011;5304;48.604;2.096;2023-03-03T09:17:06;53.90;;;28.00;;
10511;SDS011;5304;48.604;2.096;2023-03-03T09:20:16;51.70;;;28.07;;
10511;SDS011;5304;48.604;2.096;2023-03-03T09:26:29;51.07;;;28.47;;
10511;SDS011;5304;48.604;2.096;2023-03-03T09:29:30;51.10;;;29.33;;
10511;SDS011;5304;48.604;2.096;2023-03-03T09:32:29;56.03;;;29.97;;
10511;SDS011;5304;48.604;2.096;2023-03-03T09:38:29;48.40;;;26.63;;
10511;SDS011;5304;48.604;2.096;2023-03-03T09:47:26;50.27;;;28.10;;
10511;SDS011;5304;48.604;2.096;2023-03-03T09:56:19;55.13;;;31.60;;
10511;SDS011;5304;48.604;2.096;2023-03-03T09:59:18;55.63;;;30.87;;
10511;SDS011;5304;48.604;2.096;2023-03-03T10:05:11;50.63;;;28.73;;
10511;SDS011;5304;48.604;2.096;2023-03-03T10:08:02;48.53;;;28.17;;
10511;SDS011;5304;48.604;2.096;2023-03-03T10:14:22;50.17;;;27.50;;
10511;SDS011;5304;48.604;2.096;2023-03-03T10:21:03;52.87;;;30.60;;
10511;SDS011;5304;48.604;2.096;2023-03-03T10:30:57;52.87;;;30.93;;
10511;SDS011;5304;48.604;2.096;2023-03-03T10:33:51;52.03;;;29.10;;
10511;SDS011;5304;48.604;2.096;2023-03-03T10:36:43;51.30;;;31.40;;
10511;SDS011;5304;48.604;2.096;2023-03-03T10:40:16;55.37;;;30.70;;
10511;SDS011;5304;48.604;2.096;2023-03-03T10:42:52;53.77;;;30.77;;
10511;SDS011;5304;48.604;2.096;2023-03-03T10:49:03;50.90;;;28.67;;
10511;SDS011;5304;48.604;2.096;2023-03-03T10:55:27;53.60;;;30.53;;
10511;SDS011;5304;48.604;2.096;2023-03-03T10:58:39;54.17;;;30.33;;
10511;SDS011;5304;48.604;2.096;2023-03-03T11:01:41;54.93;;;29.17;;
10511;SDS011;5304;48.604;2.096;2023-03-03T11:07:39;51.07;;;29.40;;
10511;SDS011;5304;48.604;2.096;2023-03-03T11:10:33;47.53;;;28.00;;
10511;SDS011;5304;48.604;2.096;2023-03-03T11:13:50;46.47;;;29.30;;
10511;SDS011;5304;48.604;2.096;2023-03-03T11:20:02;46.67;;;25.63;;
10511;SDS011;5304;48.604;2.096;2023-03-03T11:26:05;41.87;;;27.73;;
10511;SDS011;5304;48.604;2.096;2023-03-03T11:32:22;39.40;;;24.30;;
10511;SDS011;5304;48.604;2.096;2023-03-03T11:35:19;42.13;;;26.00;;
10511;SDS011;5304;48.604;2.096;2023-03-03T11:38:37;38.43;;;24.00;;
10511;SDS011;5304;48.604;2.096;2023-03-03T11:47:39;39.13;;;23.87;;
10511;SDS011;5304;48.604;2.096;2023-03-03T11:53:46;38.70;;;24.07;;
10511;SDS011;5304;48.604;2.096;2023-03-03T11:56:47;39.60;;;23.27;;
10511;SDS011;5304;48.604;2.096;2023-03-03T11:59:34;36.73;;;21.17;;
10511;SDS011;5304;48.604;2.096;2023-03-03T12:02:37;34.60;;;21.93;;
10511;SDS011;5304;48.604;2.096;2023-03-03T12:05:41;35.37;;;22.40;;
10511;SDS011;5304;48.604;2.096;2023-03-03T12:14:57;34.03;;;21.37;;
10511;SDS011;5304;48.604;2.096;2023-03-03T12:17:57;33.00;;;20.57;;
10511;SDS011;5304;48.604;2.096;2023-03-03T12:21:04;28.20;;;18.73;;
10511;SDS011;5304;48.604;2.096;2023-03-03T12:34:00;34.70;;;20.27;;
10511;SDS011;5304;48.604;2.096;2023-03-03T12:48:42;37.07;;;20.07;;
10511;SDS011;5304;48.604;2.096;2023-03-03T12:51:33;30.90;;;19.30;;
10511;SDS011;5304;48.604;2.096;2023-03-03T12:54:44;32.30;;;20.83;;
10511;SDS011;5304;48.604;2.096;2023-03-03T12:57:46;29.27;;;18.57;;
10511;SDS011;5304;48.604;2.096;2023-03-03T13:00:38;31.03;;;19.50;;
10511;SDS011;5304;48.604;2.096;2023-03-03T13:04:00;34.13;;;20.07;;
10511;SDS011;5304;48.604;2.096;2023-03-03T13:07:00;29.07;;;19.80;;
10511;SDS011;5304;48.604;2.096;2023-03-03T13:12:53;32.17;;;18.93;;
10511;SDS011;5304;48.604;2.096;2023-03-03T13:22:13;25.87;;;16.83;;
10511;SDS011;5304;48.604;2.096;2023-03-03T13:27:55;25.03;;;17.57;;
10511;SDS011;5304;48.604;2.096;2023-03-03T13:30:49;27.00;;;16.63;;
10511;SDS011;5304;48.604;2.096;2023-03-03T13:33:47;29.00;;;17.30;;
10511;SDS011;5304;48.604;2.096;2023-03-03T13:36:44;28.73;;;17.63;;
10511;SDS011;5304;48.604;2.096;2023-03-03T13:39:37;28.87;;;17.07;;
10511;SDS011;5304;48.604;2.096;2023-03-03T13:42:41;30.57;;;18.63;;
10511;SDS011;5304;48.604;2.096;2023-03-03T13:45:41;26.23;;;16.87;;
10511;SDS011;5304;48.604;2.096;2023-03-03T13:48:42;28.93;;;17.13;;
10511;SDS011;5304;48.604;2.096;2023-03-03T13:51:42;28.43;;;17.03;;
10511;SDS011;5304;48.604;2.096;2023-03-03T13:54:50;27.23;;;16.57;;
10511;SDS011;5304;48.604;2.096;2023-03-03T13:57:42;24.60;;;16.13;;
10511;SDS011;5304;48.604;2.096;2023-03-03T14:01:22;27.70;;;15.93;;
10511;SDS011;5304;48.604;2.096;2023-03-03T14:03:59;28.47;;;16.37;;
10511;SDS011;5304;48.604;2.096;2023-03-03T14:06:52;23.07;;;15.90;;
10511;SDS011;5304;48.604;2.096;2023-03-03T14:12:50;22.23;;;14.13;;
10511;SDS011;5304;48.604;2.096;2023-03-03T14:19:04;27.57;;;12.97;;
10511;SDS011;5304;48.604;2.096;2023-03-03T14:21:56;28.10;;;14.43;;
10511;SDS011;5304;48.604;2.096;2023-03-03T14:25:08;25.43;;;14.67;;
10511;SDS011;5304;48.604;2.096;2023-03-03T14:27:58;18.60;;;12.17;;
10511;SDS011;5304;48.604;2.096;2023-03-03T14:30:55;20.73;;;12.63;;
10511;SDS011;5304;48.604;2.096;2023-03-03T14:33:42;22.37;;;13.30;;
10511;SDS011;5304;48.604;2.096;2023-03-03T14:36:38;23.40;;;12.07;;
10511;SDS011;5304;48.604;2.096;2023-03-03T14:39:35;21.93;;;12.53;;
10511;SDS011;5304;48.604;2.096;2023-03-03T14:42:29;19.70;;;11.13;;
10511;SDS011;5304;48.604;2.096;2023-03-03T14:51:23;18.83;;;12.27;;
10511;SDS011;5304;48.604;2.096;2023-03-03T14:54:29;19.03;;;10.90;;
10511;SDS011;5304;48.604;2.096;2023-03-03T15:00:30;18.37;;;11.77;;
10511;SDS011;5304;48.604;2.096;2023-03-03T15:03:22;21.53;;;12.83;;
10511;SDS011;5304;48.604;2.096;2023-03-03T15:06:10;19.23;;;11.47;;
10511;SDS011;5304;48.604;2.096;2023-03-03T15:08:56;18.47;;;11.30;;
10511;SDS011;5304;48.604;2.096;2023-03-03T15:12:00;19.87;;;11.67;;
10511;SDS011;5304;48.604;2.096;2023-03-03T15:14:47;15.83;;;10.43;;
10511;SDS011;5304;48.604;2.096;2023-03-03T15:17:35;17.33;;;10.70;;
10511;SDS011;5304;48.604;2.096;2023-03-03T15:26:34;18.43;;;10.37;;
10511;SDS011;5304;48.604;2.096;2023-03-03T15:38:50;17.13;;;11.13;;
10511;SDS011;5304;48.604;2.096;2023-03-03T15:47:45;17.37;;;9.93;;
10511;SDS011;5304;48.604;2.096;2023-03-03T16:04:19;18.40;;;9.50;;
10511;SDS011;5304;48.604;2.096;2023-03-03T16:13:43;12.63;;;8.50;;
10511;SDS011;5304;48.604;2.096;2023-03-03T16:19:48;15.60;;;9.53;;
10511;SDS011;5304;48.604;2.096;2023-03-03T16:32:00;16.17;;;10.17;;
10511;SDS011;5304;48.604;2.096;2023-03-03T16:35:13;19.43;;;9.97;;
10511;SDS011;5304;48.604;2.096;2023-03-03T16:38:02;18.07;;;11.37;;
10511;SDS011;5304;48.604;2.096;2023-03-03T16:43:44;16.33;;;11.03;;
10511;SDS011;5304;48.604;2.096;2023-03-03T16:46:42;16.60;;;11.57;;
10511;SDS011;5304;48.604;2.096;2023-03-03T16:49:36;17.97;;;10.67;;
10511;SDS011;5304;48.604;2.096;2023-03-03T16:52:33;15.50;;;10.73;;
10511;SDS011;5304;48.604;2.096;2023-03-03T16:59:06;17.77;;;11.57;;
10511;SDS011;5304;48.604;2.096;2023-03-03T17:02:02;19.03;;;11.10;;
10511;SDS011;5304;48.604;2.096;2023-03-03T17:08:22;22.43;;;11.43;;
10511;SDS011;5304;48.604;2.096;2023-03-03T17:20:16;19.53;;;11.37;;
10511;SDS011;5304;48.604;2.096;2023-03-03T17:41:43;17.97;;;10.10;;
10511;SDS011;5304;48.604;2.096;2023-03-03T17:47:18;18.00;;;10.90;;
10511;SDS011;5304;48.604;2.096;2023-03-03T17:53:11;21.47;;;11.17;;
10511;SDS011;5304;48.604;2.096;2023-03-03T18:11:02;24.83;;;13.30;;
10511;SDS011;5304;48.604;2.096;2023-03-03T18:19:56;25.70;;;13.30;;
10511;SDS011;5304;48.604;2.096;2023-03-03T18:23:33;26.57;;;13.23;;
10511;SDS011;5304;48.604;2.096;2023-03-03T18:32:01;27.57;;;14.67;;
10511;SDS011;5304;48.604;2.096;2023-03-03T18:34:47;31.30;;;16.60;;
10511;SDS011;5304;48.604;2.096;2023-03-03T18:37:52;29.07;;;15.47;;
10511;SDS011;5304;48.604;2.096;2023-03-03T18:40:47;28.37;;;15.47;;
10511;SDS011;5304;48.604;2.096;2023-03-03T18:49:10;31.43;;;15.43;;
10511;SDS011;5304;48.604;2.096;2023-03-03T18:55:02;27.37;;;15.30;;
10511;SDS011;5304;48.604;2.096;2023-03-03T19:00:58;37.43;;;16.90;;
10511;SDS011;5304;48.604;2.096;2023-03-03T19:06:31;32.23;;;16.07;;
10511;SDS011;5304;48.604;2.096;2023-03-03T19:09:48;33.13;;;17.03;;
10511;SDS011;5304;48.604;2.096;2023-03-03T19:12:44;29.10;;;14.77;;
10511;SDS011;5304;48.604;2.096;2023-03-03T19:18:20;38.80;;;17.97;;
10511;SDS011;5304;48.604;2.096;2023-03-03T19:23:59;31.20;;;15.77;;
10511;SDS011;5304;48.604;2.096;2023-03-03T19:27:00;27.97;;;14.40;;
10511;SDS011;5304;48.604;2.096;2023-03-03T19:30:03;28.63;;;15.30;;
10511;SDS011;5304;48.604;2.096;2023-03-03T19:33:06;32.83;;;15.83;;
10511;SDS011;5304;48.604;2.096;2023-03-03T19:47:50;23.53;;;12.70;;
10511;SDS011;5304;48.604;2.096;2023-03-03T19:50:48;26.47;;;13.77;;
10511;SDS011;5304;48.604;2.096;2023-03-03T19:56:41;30.30;;;14.37;;
10511;SDS011;5304;48.604;2.096;2023-03-03T19:59:36;28.43;;;15.43;;
10511;SDS011;5304;48.604;2.096;2023-03-03T20:02:31;29.57;;;13.90;;
10511;SDS011;5304;48.604;2.096;2023-03-03T20:09:13;29.97;;;14.63;;
10511;SDS011;5304;48.604;2.096;2023-03-03T20:30:25;23.47;;;12.73;;
10511;SDS011;5304;48.604;2.096;2023-03-03T20:51:31;25.77;;;13.17;;
10511;SDS011;5304;48.604;2.096;2023-03-03T21:00:11;28.93;;;15.03;;
10511;SDS011;5304;48.604;2.096;2023-03-03T21:03:10;27.07;;;13.03;;
10511;SDS011;5304;48.604;2.096;2023-03-03T21:06:04;28.70;;;14.00;;
10511;SDS011;5304;48.604;2.096;2023-03-03T21:08:58;27.40;;;14.83;;
10511;SDS011;5304;48.604;2.096;2023-03-03T21:11:43;28.50;;;15.67;;
10511;SDS011;5304;48.604;2.096;2023-03-03T21:14:28;28.70;;;14.67;;
10511;SDS011;5304;48.604;2.096;2023-03-03T21:17:24;27.13;;;13.73;;
10511;SDS011;5304;48.604;2.096;2023-03-03T21:20:24;26.97;;;13.80;;
10511;SDS011;5304;48.604;2.096;2023-03-03T21:23:11;27.57;;;14.33;;
10511;SDS011;5304;48.604;2.096;2023-03-03T21:25:56;25.70;;;14.50;;
10511;SDS011;5304;48.604;2.096;2023-03-03T21:28:41;29.83;;;15.20;;
10511;SDS011;5304;48.604;2.096;2023-03-03T21:31:49;26.77;;;12.77;;
10511;SDS011;5304;48.604;2.096;2023-03-03T21:34:37;25.80;;;13.40;;
10511;SDS011;5304;48.604;2.096;2023-03-03T21:40:32;27.77;;;14.23;;
10511;SDS011;5304;48.604;2.096;2023-03-03T21:43:32;29.80;;;14.60;;
10511;SDS011;5304;48.604;2.096;2023-03-03T21:46:19;31.83;;;14.17;;
10511;SDS011;5304;48.604;2.096;2023-03-03T21:49:05;31.10;;;14.63;;
10511;SDS011;5304;48.604;2.096;2023-03-03T21:51:50;27.93;;;14.50;;
10511;SDS011;5304;48.604;2.096;2023-03-03T21:54:34;28.77;;;14.43;;
10511;SDS011;5304;48.604;2.096;2023-03-03T21:57:18;31.70;;;14.57;;
10511;SDS011;5304;48.604;2.096;2023-03-03T22:00:05;26.17;;;15.33;;
10511;SDS011;5304;48.604;2.096;2023-03-03T22:02:50;25.53;;;13.63;;
10511;SDS011;5304;48.604;2.096;2023-03-03T22:05:35;29.20;;;14.20;;
10511;SDS011;5304;48.604;2.096;2023-03-03T22:08:19;28.00;;;14.23;;
10511;SDS011;5304;48.604;2.096;2023-03-03T22:11:05;32.10;;;15.53;;
10511;SDS011;5304;48.604;2.096;2023-03-03T22:13:49;24.17;;;13.97;;
10511;SDS011;5304;48.604;2.096;2023-03-03T22:16:34;29.00;;;13.77;;
10511;SDS011;5304;48.604;2.096;2023-03-03T22:19:19;28.03;;;14.40;;
10511;SDS011;5304;48.604;2.096;2023-03-03T22:22:04;33.13;;;14.80;;
10511;SDS011;5304;48.604;2.096;2023-03-03T22:24:48;32.07;;;14.93;;
10511;SDS011;5304;48.604;2.096;2023-03-03T22:27:33;29.10;;;13.97;;
10511;SDS011;5304;48.604;2.096;2023-03-03T22:30:17;30.23;;;15.60;;
10511;SDS011;5304;48.604;2.096;2023-03-03T22:33:02;31.63;;;15.07;;
10511;SDS011;5304;48.604;2.096;2023-03-03T22:35:46;25.90;;;13.67;;
10511;SDS011;5304;48.604;2.096;2023-03-03T22:38:31;31.27;;;15.63;;
10511;SDS011;5304;48.604;2.096;2023-03-03T22:41:16;28.37;;;15.07;;
10511;SDS011;5304;48.604;2.096;2023-03-03T22:44:00;32.37;;;14.90;;
10511;SDS011;5304;48.604;2.096;2023-03-03T22:46:44;30.27;;;14.33;;
10511;SDS011;5304;48.604;2.096;2023-03-03T22:49:29;27.97;;;14.50;;
10511;SDS011;5304;48.604;2.096;2023-03-03T22:52:13;34.70;;;14.70;;
10511;SDS011;5304;48.604;2.096;2023-03-03T22:54:57;28.87;;;14.80;;
10511;SDS011;5304;48.604;2.096;2023-03-03T22:57:42;31.33;;;15.27;;